sensor_id;sensor_type;location;lat;lon;timestamp;temperature;humidity
24144;DHT22;12307;50.828;6.080;2022-08-21T00:00:37;24.60;68.90
24144;DHT22;12307;50.828;6.080;2022-08-21T00:03:07;24.70;69.80
24144;DHT22;12307;50.828;6.080;2022-08-21T00:05:36;24.70;68.90
24144;DHT22;12307;50.828;6.080;2022-08-21T00:08:03;24.70;68.90
24144;DHT22;12307;50.828;6.080;2022-08-21T00:10:29;24.70;68.90
24144;DHT22;12307;50.828;6.080;2022-08-21T00:12:55;24.70;68.90
24144;DHT22;12307;50.828;6.080;2022-08-21T00:15:24;24.70;68.90
24144;DHT22;12307;50.828;6.080;2022-08-21T00:17:52;24.70;68.90
24144;DHT22;12307;50.828;6.080;2022-08-21T00:20:19;24.70;68.90
24144;DHT22;12307;50.828;6.080;2022-08-21T00:22:45;24.70;68.90
24144;DHT22;12307;50.828;6.080;2022-08-21T00:25:12;24.70;68.90
24144;DHT22;12307;50.828;6.080;2022-08-21T00:27:38;24.70;68.90
24144;DHT22;12307;50.828;6.080;2022-08-21T00:30:06;24.60;68.80
24144;DHT22;12307;50.828;6.080;2022-08-21T00:32:33;24.60;68.80
24144;DHT22;12307;50.828;6.080;2022-08-21T00:34:59;24.70;68.90
24144;DHT22;12307;50.828;6.080;2022-08-21T00:37:26;24.60;68.80
24144;DHT22;12307;50.828;6.080;2022-08-21T00:39:52;24.60;68.80
24144;DHT22;12307;50.828;6.080;2022-08-21T00:42:18;24.60;68.90
24144;DHT22;12307;50.828;6.080;2022-08-21T00:44:47;24.60;68.80
24144;DHT22;12307;50.828;6.080;2022-08-21T00:47:13;24.60;68.80
24144;DHT22;12307;50.828;6.080;2022-08-21T00:49:40;24.60;68.80
24144;DHT22;12307;50.828;6.080;2022-08-21T00:52:09;24.60;68.90
24144;DHT22;12307;50.828;6.080;2022-08-21T00:54:38;24.60;69.60
24144;DHT22;12307;50.828;6.080;2022-08-21T00:57:08;24.60;68.80
24144;DHT22;12307;50.828;6.080;2022-08-21T00:59:37;24.60;68.80
24144;DHT22;12307;50.828;6.080;2022-08-21T01:02:04;24.60;68.80
24144;DHT22;12307;50.828;6.080;2022-08-21T01:04:30;24.60;68.80
24144;DHT22;12307;50.828;6.080;2022-08-21T01:06:56;24.60;68.70
24144;DHT22;12307;50.828;6.080;2022-08-21T01:09:22;24.60;68.80
24144;DHT22;12307;50.828;6.080;2022-08-21T01:11:49;24.60;68.80
24144;DHT22;12307;50.828;6.080;2022-08-21T01:14:15;24.60;68.80
24144;DHT22;12307;50.828;6.080;2022-08-21T01:16:46;24.60;68.80
24144;DHT22;12307;50.828;6.080;2022-08-21T01:19:12;24.60;68.80
24144;DHT22;12307;50.828;6.080;2022-08-21T01:21:41;24.60;68.80
24144;DHT22;12307;50.828;6.080;2022-08-21T01:24:07;24.60;68.80
24144;DHT22;12307;50.828;6.080;2022-08-21T01:26:34;24.60;68.70
24144;DHT22;12307;50.828;6.080;2022-08-21T01:29:05;24.60;68.80
24144;DHT22;12307;50.828;6.080;2022-08-21T01:31:31;24.60;68.80
24144;DHT22;12307;50.828;6.080;2022-08-21T01:33:59;24.60;68.80
24144;DHT22;12307;50.828;6.080;2022-08-21T01:36:26;24.60;68.70
24144;DHT22;12307;50.828;6.080;2022-08-21T01:38:53;24.60;68.70
24144;DHT22;12307;50.828;6.080;2022-08-21T01:41:19;24.60;68.80
24144;DHT22;12307;50.828;6.080;2022-08-21T01:43:45;24.60;69.50
24144;DHT22;12307;50.828;6.080;2022-08-21T01:46:12;24.50;68.60
24144;DHT22;12307;50.828;6.080;2022-08-21T01:48:38;24.50;68.70
24144;DHT22;12307;50.828;6.080;2022-08-21T01:51:05;24.50;68.60
24144;DHT22;12307;50.828;6.080;2022-08-21T01:53:31;24.50;68.60
24144;DHT22;12307;50.828;6.080;2022-08-21T01:56:00;24.50;68.60
24144;DHT22;12307;50.828;6.080;2022-08-21T01:58:26;24.50;68.60
24144;DHT22;12307;50.828;6.080;2022-08-21T02:00:52;24.50;68.70
24144;DHT22;12307;50.828;6.080;2022-08-21T02:03:18;24.50;68.60
24144;DHT22;12307;50.828;6.080;2022-08-21T02:05:43;24.50;68.70
24144;DHT22;12307;50.828;6.080;2022-08-21T02:08:09;24.50;68.60
24144;DHT22;12307;50.828;6.080;2022-08-21T02:10:35;24.50;68.60
24144;DHT22;12307;50.828;6.080;2022-08-21T02:13:02;24.50;68.60
24144;DHT22;12307;50.828;6.080;2022-08-21T02:15:29;24.50;68.60
24144;DHT22;12307;50.828;6.080;2022-08-21T02:17:57;24.50;68.70
24144;DHT22;12307;50.828;6.080;2022-08-21T02:20:26;24.50;68.80
24144;DHT22;12307;50.828;6.080;2022-08-21T02:22:53;24.50;68.70
24144;DHT22;12307;50.828;6.080;2022-08-21T02:25:20;24.50;68.70
24144;DHT22;12307;50.828;6.080;2022-08-21T02:27:46;24.50;68.60
24144;DHT22;12307;50.828;6.080;2022-08-21T02:30:16;24.50;68.60
24144;DHT22;12307;50.828;6.080;2022-08-21T02:32:42;24.50;68.60
24144;DHT22;12307;50.828;6.080;2022-08-21T02:35:09;24.50;68.70
24144;DHT22;12307;50.828;6.080;2022-08-21T02:37:43;24.50;68.60
24144;DHT22;12307;50.828;6.080;2022-08-21T02:40:10;24.50;68.60
24144;DHT22;12307;50.828;6.080;2022-08-21T02:42:36;24.50;68.60
24144;DHT22;12307;50.828;6.080;2022-08-21T02:45:03;24.50;68.60
24144;DHT22;12307;50.828;6.080;2022-08-21T02:47:30;24.50;68.70
24144;DHT22;12307;50.828;6.080;2022-08-21T02:49:55;24.50;68.60
24144;DHT22;12307;50.828;6.080;2022-08-21T02:52:21;24.50;68.60
24144;DHT22;12307;50.828;6.080;2022-08-21T02:54:47;24.50;68.70
24144;DHT22;12307;50.828;6.080;2022-08-21T02:57:13;24.50;68.60
24144;DHT22;12307;50.828;6.080;2022-08-21T02:59:39;24.50;68.70
24144;DHT22;12307;50.828;6.080;2022-08-21T03:02:06;24.50;68.70
24144;DHT22;12307;50.828;6.080;2022-08-21T03:04:33;24.50;68.60
24144;DHT22;12307;50.828;6.080;2022-08-21T03:06:59;24.50;68.80
24144;DHT22;12307;50.828;6.080;2022-08-21T03:09:25;24.50;68.60
24144;DHT22;12307;50.828;6.080;2022-08-21T03:11:51;24.50;68.60
24144;DHT22;12307;50.828;6.080;2022-08-21T03:14:17;24.50;68.60
24144;DHT22;12307;50.828;6.080;2022-08-21T03:16:43;24.50;68.60
24144;DHT22;12307;50.828;6.080;2022-08-21T03:19:09;24.50;68.60
24144;DHT22;12307;50.828;6.080;2022-08-21T03:21:36;24.50;68.60
24144;DHT22;12307;50.828;6.080;2022-08-21T03:24:02;24.50;68.60
24144;DHT22;12307;50.828;6.080;2022-08-21T03:26:28;24.50;68.60
24144;DHT22;12307;50.828;6.080;2022-08-21T03:28:54;24.40;68.60
24144;DHT22;12307;50.828;6.080;2022-08-21T03:31:19;24.40;68.50
24144;DHT22;12307;50.828;6.080;2022-08-21T03:33:47;24.40;68.60
24144;DHT22;12307;50.828;6.080;2022-08-21T03:36:14;24.40;68.50
24144;DHT22;12307;50.828;6.080;2022-08-21T03:38:42;24.40;68.60
24144;DHT22;12307;50.828;6.080;2022-08-21T03:41:08;24.40;68.60
24144;DHT22;12307;50.828;6.080;2022-08-21T03:43:34;24.50;68.60
24144;DHT22;12307;50.828;6.080;2022-08-21T03:46:00;24.40;68.60
24144;DHT22;12307;50.828;6.080;2022-08-21T03:48:26;24.40;68.60
24144;DHT22;12307;50.828;6.080;2022-08-21T03:50:52;24.40;68.60
24144;DHT22;12307;50.828;6.080;2022-08-21T03:53:18;24.40;68.60
24144;DHT22;12307;50.828;6.080;2022-08-21T03:55:47;24.40;68.50
24144;DHT22;12307;50.828;6.080;2022-08-21T03:58:13;24.40;68.50
24144;DHT22;12307;50.828;6.080;2022-08-21T04:00:39;24.40;68.50
24144;DHT22;12307;50.828;6.080;2022-08-21T04:03:05;24.40;68.60
24144;DHT22;12307;50.828;6.080;2022-08-21T04:05:32;24.40;68.60
24144;DHT22;12307;50.828;6.080;2022-08-21T04:08:00;24.40;68.50
24144;DHT22;12307;50.828;6.080;2022-08-21T04:10:27;24.40;68.50
24144;DHT22;12307;50.828;6.080;2022-08-21T04:12:55;24.40;68.50
24144;DHT22;12307;50.828;6.080;2022-08-21T04:15:22;24.40;68.50
24144;DHT22;12307;50.828;6.080;2022-08-21T04:17:48;24.40;68.50
24144;DHT22;12307;50.828;6.080;2022-08-21T04:20:14;24.40;68.50
24144;DHT22;12307;50.828;6.080;2022-08-21T04:22:39;24.40;68.50
24144;DHT22;12307;50.828;6.080;2022-08-21T04:25:06;24.40;68.50
24144;DHT22;12307;50.828;6.080;2022-08-21T04:27:33;24.40;68.70
24144;DHT22;12307;50.828;6.080;2022-08-21T04:30:00;24.40;68.60
24144;DHT22;12307;50.828;6.080;2022-08-21T04:32:26;24.40;68.50
24144;DHT22;12307;50.828;6.080;2022-08-21T04:34:59;24.40;68.40
24144;DHT22;12307;50.828;6.080;2022-08-21T04:37:25;24.40;68.50
24144;DHT22;12307;50.828;6.080;2022-08-21T04:39:51;24.40;68.50
24144;DHT22;12307;50.828;6.080;2022-08-21T04:42:16;24.40;68.50
24144;DHT22;12307;50.828;6.080;2022-08-21T04:44:42;24.40;68.50
24144;DHT22;12307;50.828;6.080;2022-08-21T04:47:09;24.40;68.50
24144;DHT22;12307;50.828;6.080;2022-08-21T04:49:35;24.40;68.50
24144;DHT22;12307;50.828;6.080;2022-08-21T04:52:01;24.30;68.40
24144;DHT22;12307;50.828;6.080;2022-08-21T04:54:27;24.40;68.50
24144;DHT22;12307;50.828;6.080;2022-08-21T04:56:57;24.30;68.50
24144;DHT22;12307;50.828;6.080;2022-08-21T04:59:28;24.40;68.40
24144;DHT22;12307;50.828;6.080;2022-08-21T05:01:55;24.30;68.40
24144;DHT22;12307;50.828;6.080;2022-08-21T05:04:26;24.30;68.30
24144;DHT22;12307;50.828;6.080;2022-08-21T05:06:56;24.30;68.40
24144;DHT22;12307;50.828;6.080;2022-08-21T05:09:24;24.30;68.50
24144;DHT22;12307;50.828;6.080;2022-08-21T05:11:50;24.30;68.40
24144;DHT22;12307;50.828;6.080;2022-08-21T05:14:17;24.30;68.40
24144;DHT22;12307;50.828;6.080;2022-08-21T05:16:43;24.30;68.40
24144;DHT22;12307;50.828;6.080;2022-08-21T05:19:09;24.30;68.30
24144;DHT22;12307;50.828;6.080;2022-08-21T05:21:40;24.30;68.50
24144;DHT22;12307;50.828;6.080;2022-08-21T05:24:06;24.30;68.30
24144;DHT22;12307;50.828;6.080;2022-08-21T05:26:32;24.30;68.30
24144;DHT22;12307;50.828;6.080;2022-08-21T05:28:58;24.40;68.50
24144;DHT22;12307;50.828;6.080;2022-08-21T05:31:24;24.30;68.40
24144;DHT22;12307;50.828;6.080;2022-08-21T05:33:50;24.30;68.50
24144;DHT22;12307;50.828;6.080;2022-08-21T05:36:16;24.30;68.40
24144;DHT22;12307;50.828;6.080;2022-08-21T05:38:43;24.30;68.50
24144;DHT22;12307;50.828;6.080;2022-08-21T05:41:09;24.30;68.50
24144;DHT22;12307;50.828;6.080;2022-08-21T05:43:35;24.30;68.30
24144;DHT22;12307;50.828;6.080;2022-08-21T05:46:02;24.30;68.30
24144;DHT22;12307;50.828;6.080;2022-08-21T05:48:28;24.30;68.40
24144;DHT22;12307;50.828;6.080;2022-08-21T05:50:53;24.30;68.40
24144;DHT22;12307;50.828;6.080;2022-08-21T05:53:21;24.30;68.40
24144;DHT22;12307;50.828;6.080;2022-08-21T05:55:49;24.30;68.40
24144;DHT22;12307;50.828;6.080;2022-08-21T05:58:18;24.30;68.40
24144;DHT22;12307;50.828;6.080;2022-08-21T06:00:45;24.30;68.40
24144;DHT22;12307;50.828;6.080;2022-08-21T06:03:14;24.30;68.30
24144;DHT22;12307;50.828;6.080;2022-08-21T06:05:42;24.30;68.30
24144;DHT22;12307;50.828;6.080;2022-08-21T06:08:07;24.30;68.40
24144;DHT22;12307;50.828;6.080;2022-08-21T06:10:33;24.30;68.30
24144;DHT22;12307;50.828;6.080;2022-08-21T06:13:00;24.30;68.30
24144;DHT22;12307;50.828;6.080;2022-08-21T06:15:27;24.30;68.30
24144;DHT22;12307;50.828;6.080;2022-08-21T06:17:53;24.30;68.50
24144;DHT22;12307;50.828;6.080;2022-08-21T06:20:18;24.30;68.40
24144;DHT22;12307;50.828;6.080;2022-08-21T06:22:44;24.30;68.40
24144;DHT22;12307;50.828;6.080;2022-08-21T06:25:10;24.30;68.60
24144;DHT22;12307;50.828;6.080;2022-08-21T06:27:36;24.30;68.40
24144;DHT22;12307;50.828;6.080;2022-08-21T06:30:03;24.30;68.50
24144;DHT22;12307;50.828;6.080;2022-08-21T06:32:29;24.30;68.40
24144;DHT22;12307;50.828;6.080;2022-08-21T06:34:55;24.30;68.50
24144;DHT22;12307;50.828;6.080;2022-08-21T06:37:20;24.30;68.70
24144;DHT22;12307;50.828;6.080;2022-08-21T06:39:47;24.30;68.70
24144;DHT22;12307;50.828;6.080;2022-08-21T06:42:14;24.30;68.60
24144;DHT22;12307;50.828;6.080;2022-08-21T06:44:39;24.30;68.60
24144;DHT22;12307;50.828;6.080;2022-08-21T06:47:06;24.30;68.30
24144;DHT22;12307;50.828;6.080;2022-08-21T06:49:32;24.30;68.70
24144;DHT22;12307;50.828;6.080;2022-08-21T06:51:58;24.30;68.10
24144;DHT22;12307;50.828;6.080;2022-08-21T06:54:24;24.30;68.60
24144;DHT22;12307;50.828;6.080;2022-08-21T06:56:49;24.30;68.50
24144;DHT22;12307;50.828;6.080;2022-08-21T06:59:15;24.30;68.40
24144;DHT22;12307;50.828;6.080;2022-08-21T07:01:41;24.30;68.50
24144;DHT22;12307;50.828;6.080;2022-08-21T07:04:08;24.30;68.70
24144;DHT22;12307;50.828;6.080;2022-08-21T07:06:33;24.30;68.60
24144;DHT22;12307;50.828;6.080;2022-08-21T07:08:59;24.30;68.40
24144;DHT22;12307;50.828;6.080;2022-08-21T07:11:26;24.30;68.60
24144;DHT22;12307;50.828;6.080;2022-08-21T07:13:52;24.30;68.70
24144;DHT22;12307;50.828;6.080;2022-08-21T07:16:19;24.30;68.70
24144;DHT22;12307;50.828;6.080;2022-08-21T07:18:45;24.30;68.90
24144;DHT22;12307;50.828;6.080;2022-08-21T07:21:13;24.30;68.50
24144;DHT22;12307;50.828;6.080;2022-08-21T07:23:41;24.30;68.50
24144;DHT22;12307;50.828;6.080;2022-08-21T07:26:07;24.30;68.90
24144;DHT22;12307;50.828;6.080;2022-08-21T07:28:33;24.30;68.90
24144;DHT22;12307;50.828;6.080;2022-08-21T07:31:01;24.30;69.00
24144;DHT22;12307;50.828;6.080;2022-08-21T07:33:29;24.40;69.40
24144;DHT22;12307;50.828;6.080;2022-08-21T07:35:55;24.40;69.40
24144;DHT22;12307;50.828;6.080;2022-08-21T07:38:23;24.40;69.10
24144;DHT22;12307;50.828;6.080;2022-08-21T07:40:49;24.40;69.20
24144;DHT22;12307;50.828;6.080;2022-08-21T07:43:16;24.40;69.10
24144;DHT22;12307;50.828;6.080;2022-08-21T07:45:43;24.40;69.20
24144;DHT22;12307;50.828;6.080;2022-08-21T07:48:09;24.40;68.90
24144;DHT22;12307;50.828;6.080;2022-08-21T07:50:35;24.40;68.60
24144;DHT22;12307;50.828;6.080;2022-08-21T07:53:01;24.40;68.60
24144;DHT22;12307;50.828;6.080;2022-08-21T07:55:29;24.40;68.20
24144;DHT22;12307;50.828;6.080;2022-08-21T07:57:54;24.40;67.90
24144;DHT22;12307;50.828;6.080;2022-08-21T08:00:22;24.40;67.90
24144;DHT22;12307;50.828;6.080;2022-08-21T08:02:50;24.40;67.90
24144;DHT22;12307;50.828;6.080;2022-08-21T08:05:18;24.40;67.80
24144;DHT22;12307;50.828;6.080;2022-08-21T08:07:44;24.40;67.80
24144;DHT22;12307;50.828;6.080;2022-08-21T08:10:10;24.40;67.80
24144;DHT22;12307;50.828;6.080;2022-08-21T08:12:39;24.40;67.70
24144;DHT22;12307;50.828;6.080;2022-08-21T08:15:07;24.50;67.70
24144;DHT22;12307;50.828;6.080;2022-08-21T08:17:33;24.50;67.60
24144;DHT22;12307;50.828;6.080;2022-08-21T08:19:59;24.50;67.60
24144;DHT22;12307;50.828;6.080;2022-08-21T08:22:26;24.50;67.50
24144;DHT22;12307;50.828;6.080;2022-08-21T08:24:53;24.50;67.30
24144;DHT22;12307;50.828;6.080;2022-08-21T08:27:19;24.50;67.30
24144;DHT22;12307;50.828;6.080;2022-08-21T08:29:50;24.50;67.20
24144;DHT22;12307;50.828;6.080;2022-08-21T08:32:17;24.60;67.20
24144;DHT22;12307;50.828;6.080;2022-08-21T08:34:43;24.60;67.30
24144;DHT22;12307;50.828;6.080;2022-08-21T08:37:09;24.60;67.20
24144;DHT22;12307;50.828;6.080;2022-08-21T08:39:35;24.60;67.20
24144;DHT22;12307;50.828;6.080;2022-08-21T08:42:06;24.60;67.10
24144;DHT22;12307;50.828;6.080;2022-08-21T08:44:32;24.60;67.10
24144;DHT22;12307;50.828;6.080;2022-08-21T08:47:00;24.70;67.10
24144;DHT22;12307;50.828;6.080;2022-08-21T08:49:30;24.70;67.10
24144;DHT22;12307;50.828;6.080;2022-08-21T08:52:01;24.70;67.10
24144;DHT22;12307;50.828;6.080;2022-08-21T08:54:29;24.70;67.10
24144;DHT22;12307;50.828;6.080;2022-08-21T08:56:58;24.70;67.10
24144;DHT22;12307;50.828;6.080;2022-08-21T08:59:29;24.70;67.10
24144;DHT22;12307;50.828;6.080;2022-08-21T09:02:00;24.70;67.10
24144;DHT22;12307;50.828;6.080;2022-08-21T09:04:27;24.70;67.10
24144;DHT22;12307;50.828;6.080;2022-08-21T09:07:01;24.70;66.90
24144;DHT22;12307;50.828;6.080;2022-08-21T09:09:43;24.70;66.80
24144;DHT22;12307;50.828;6.080;2022-08-21T09:12:18;24.80;67.10
24144;DHT22;12307;50.828;6.080;2022-08-21T09:14:58;24.80;67.00
24144;DHT22;12307;50.828;6.080;2022-08-21T09:17:39;24.80;67.00
24144;DHT22;12307;50.828;6.080;2022-08-21T09:20:15;24.80;67.20
24144;DHT22;12307;50.828;6.080;2022-08-21T09:22:51;24.80;67.20
24144;DHT22;12307;50.828;6.080;2022-08-21T09:25:24;24.80;68.00
24144;DHT22;12307;50.828;6.080;2022-08-21T09:27:51;24.80;67.00
24144;DHT22;12307;50.828;6.080;2022-08-21T09:30:17;24.80;67.10
24144;DHT22;12307;50.828;6.080;2022-08-21T09:32:44;24.80;67.00
24144;DHT22;12307;50.828;6.080;2022-08-21T09:35:12;24.80;67.00
24144;DHT22;12307;50.828;6.080;2022-08-21T09:37:48;24.80;66.70
24144;DHT22;12307;50.828;6.080;2022-08-21T09:40:19;24.90;66.80
24144;DHT22;12307;50.828;6.080;2022-08-21T09:42:54;24.90;66.60
24144;DHT22;12307;50.828;6.080;2022-08-21T09:45:20;24.90;66.80
24144;DHT22;12307;50.828;6.080;2022-08-21T09:47:47;24.90;67.20
24144;DHT22;12307;50.828;6.080;2022-08-21T09:50:16;24.90;67.00
24144;DHT22;12307;50.828;6.080;2022-08-21T09:52:45;24.90;66.90
24144;DHT22;12307;50.828;6.080;2022-08-21T09:55:18;24.90;67.10
24144;DHT22;12307;50.828;6.080;2022-08-21T09:58:04;24.90;66.80
24144;DHT22;12307;50.828;6.080;2022-08-21T10:00:32;24.90;66.70
24144;DHT22;12307;50.828;6.080;2022-08-21T10:03:13;24.90;66.60
24144;DHT22;12307;50.828;6.080;2022-08-21T10:05:39;24.90;66.60
24144;DHT22;12307;50.828;6.080;2022-08-21T10:08:16;24.90;66.60
24144;DHT22;12307;50.828;6.080;2022-08-21T10:10:42;24.90;66.60
24144;DHT22;12307;50.828;6.080;2022-08-21T10:13:12;24.90;66.60
24144;DHT22;12307;50.828;6.080;2022-08-21T10:15:45;24.90;66.90
24144;DHT22;12307;50.828;6.080;2022-08-21T10:18:20;24.90;66.90
24144;DHT22;12307;50.828;6.080;2022-08-21T10:20:52;24.90;66.80
24144;DHT22;12307;50.828;6.080;2022-08-21T10:23:38;24.90;66.90
24144;DHT22;12307;50.828;6.080;2022-08-21T10:26:26;24.90;66.70
24144;DHT22;12307;50.828;6.080;2022-08-21T10:29:02;24.90;66.60
24144;DHT22;12307;50.828;6.080;2022-08-21T10:31:35;24.90;66.60
24144;DHT22;12307;50.828;6.080;2022-08-21T10:34:13;25.00;67.00
24144;DHT22;12307;50.828;6.080;2022-08-21T10:36:58;25.00;67.50
24144;DHT22;12307;50.828;6.080;2022-08-21T10:39:32;25.00;66.90
24144;DHT22;12307;50.828;6.080;2022-08-21T10:42:25;25.00;67.10
24144;DHT22;12307;50.828;6.080;2022-08-21T10:45:07;25.00;66.60
24144;DHT22;12307;50.828;6.080;2022-08-21T10:47:36;25.00;68.00
24144;DHT22;12307;50.828;6.080;2022-08-21T10:50:10;25.00;68.00
24144;DHT22;12307;50.828;6.080;2022-08-21T10:52:51;25.00;68.20
24144;DHT22;12307;50.828;6.080;2022-08-21T10:55:19;25.10;68.10
24144;DHT22;12307;50.828;6.080;2022-08-21T10:57:49;25.10;67.60
24144;DHT22;12307;50.828;6.080;2022-08-21T11:00:18;25.10;67.20
24144;DHT22;12307;50.828;6.080;2022-08-21T11:02:50;25.10;67.30
24144;DHT22;12307;50.828;6.080;2022-08-21T11:05:24;25.10;66.80
24144;DHT22;12307;50.828;6.080;2022-08-21T11:07:54;25.10;66.60
24144;DHT22;12307;50.828;6.080;2022-08-21T11:10:23;25.10;66.60
24144;DHT22;12307;50.828;6.080;2022-08-21T11:12:53;25.10;66.50
24144;DHT22;12307;50.828;6.080;2022-08-21T11:15:28;25.10;66.40
24144;DHT22;12307;50.828;6.080;2022-08-21T11:18:03;25.10;66.40
24144;DHT22;12307;50.828;6.080;2022-08-21T11:20:36;25.10;66.90
24144;DHT22;12307;50.828;6.080;2022-08-21T11:23:07;25.20;66.60
24144;DHT22;12307;50.828;6.080;2022-08-21T11:25:36;25.20;66.50
24144;DHT22;12307;50.828;6.080;2022-08-21T11:28:08;25.20;66.70
24144;DHT22;12307;50.828;6.080;2022-08-21T11:30:44;25.20;67.00
24144;DHT22;12307;50.828;6.080;2022-08-21T11:33:26;25.20;66.90
24144;DHT22;12307;50.828;6.080;2022-08-21T11:36:02;25.20;66.60
24144;DHT22;12307;50.828;6.080;2022-08-21T11:38:36;25.20;66.40
24144;DHT22;12307;50.828;6.080;2022-08-21T11:41:13;25.20;66.50
24144;DHT22;12307;50.828;6.080;2022-08-21T11:43:44;25.20;66.70
24144;DHT22;12307;50.828;6.080;2022-08-21T11:46:17;25.20;66.70
24144;DHT22;12307;50.828;6.080;2022-08-21T11:48:56;25.20;66.20
24144;DHT22;12307;50.828;6.080;2022-08-21T11:51:31;25.20;66.30
24144;DHT22;12307;50.828;6.080;2022-08-21T11:54:04;25.20;66.40
24144;DHT22;12307;50.828;6.080;2022-08-21T11:56:35;25.20;67.00
24144;DHT22;12307;50.828;6.080;2022-08-21T11:59:08;25.20;67.30
24144;DHT22;12307;50.828;6.080;2022-08-21T12:01:37;25.20;66.80
24144;DHT22;12307;50.828;6.080;2022-08-21T12:04:09;25.20;67.30
24144;DHT22;12307;50.828;6.080;2022-08-21T12:06:39;25.20;67.00
24144;DHT22;12307;50.828;6.080;2022-08-21T12:09:07;25.20;67.00
24144;DHT22;12307;50.828;6.080;2022-08-21T12:11:46;25.20;66.70
24144;DHT22;12307;50.828;6.080;2022-08-21T12:14:13;25.20;67.00
24144;DHT22;12307;50.828;6.080;2022-08-21T12:16:41;25.20;66.50
24144;DHT22;12307;50.828;6.080;2022-08-21T12:19:09;25.20;66.40
24144;DHT22;12307;50.828;6.080;2022-08-21T12:21:50;25.20;66.80
24144;DHT22;12307;50.828;6.080;2022-08-21T12:24:18;25.20;67.00
24144;DHT22;12307;50.828;6.080;2022-08-21T12:26:52;25.20;66.40
24144;DHT22;12307;50.828;6.080;2022-08-21T12:29:22;25.20;66.40
24144;DHT22;12307;50.828;6.080;2022-08-21T12:31:57;25.20;67.00
24144;DHT22;12307;50.828;6.080;2022-08-21T12:34:29;25.20;66.50
24144;DHT22;12307;50.828;6.080;2022-08-21T12:37:00;25.20;66.40
24144;DHT22;12307;50.828;6.080;2022-08-21T12:39:30;25.20;66.70
24144;DHT22;12307;50.828;6.080;2022-08-21T12:42:00;25.30;66.90
24144;DHT22;12307;50.828;6.080;2022-08-21T12:44:34;25.30;66.80
24144;DHT22;12307;50.828;6.080;2022-08-21T12:47:04;25.30;67.20
24144;DHT22;12307;50.828;6.080;2022-08-21T12:49:35;25.30;66.90
24144;DHT22;12307;50.828;6.080;2022-08-21T12:52:12;25.30;67.20
24144;DHT22;12307;50.828;6.080;2022-08-21T12:54:43;25.30;67.20
24144;DHT22;12307;50.828;6.080;2022-08-21T12:57:18;25.30;67.10
24144;DHT22;12307;50.828;6.080;2022-08-21T12:59:44;25.30;67.00
24144;DHT22;12307;50.828;6.080;2022-08-21T13:02:15;25.30;67.10
24144;DHT22;12307;50.828;6.080;2022-08-21T13:04:43;25.30;67.00
24144;DHT22;12307;50.828;6.080;2022-08-21T13:07:12;25.30;67.10
24144;DHT22;12307;50.828;6.080;2022-08-21T13:09:44;25.30;66.90
24144;DHT22;12307;50.828;6.080;2022-08-21T13:12:11;25.30;66.90
24144;DHT22;12307;50.828;6.080;2022-08-21T13:14:39;25.30;67.00
24144;DHT22;12307;50.828;6.080;2022-08-21T13:17:06;25.30;66.40
24144;DHT22;12307;50.828;6.080;2022-08-21T13:19:33;25.30;66.80
24144;DHT22;12307;50.828;6.080;2022-08-21T13:22:00;25.30;67.30
24144;DHT22;12307;50.828;6.080;2022-08-21T13:24:29;25.30;66.80
24144;DHT22;12307;50.828;6.080;2022-08-21T13:26:56;25.30;66.90
24144;DHT22;12307;50.828;6.080;2022-08-21T13:29:26;25.30;67.30
24144;DHT22;12307;50.828;6.080;2022-08-21T13:31:55;25.30;67.60
24144;DHT22;12307;50.828;6.080;2022-08-21T13:34:23;25.30;67.20
24144;DHT22;12307;50.828;6.080;2022-08-21T13:36:52;25.20;67.30
24144;DHT22;12307;50.828;6.080;2022-08-21T13:39:20;25.20;67.20
24144;DHT22;12307;50.828;6.080;2022-08-21T13:41:49;25.20;67.10
24144;DHT22;12307;50.828;6.080;2022-08-21T13:44:18;25.20;67.10
24144;DHT22;12307;50.828;6.080;2022-08-21T13:46:44;25.20;67.00
24144;DHT22;12307;50.828;6.080;2022-08-21T13:49:13;25.20;67.40
24144;DHT22;12307;50.828;6.080;2022-08-21T13:51:40;25.20;67.10
24144;DHT22;12307;50.828;6.080;2022-08-21T13:54:14;25.20;67.50
24144;DHT22;12307;50.828;6.080;2022-08-21T13:56:43;25.20;67.30
24144;DHT22;12307;50.828;6.080;2022-08-21T13:59:10;25.20;67.50
24144;DHT22;12307;50.828;6.080;2022-08-21T14:01:39;25.20;67.10
24144;DHT22;12307;50.828;6.080;2022-08-21T14:04:18;25.20;67.40
24144;DHT22;12307;50.828;6.080;2022-08-21T14:06:46;25.20;67.70
24144;DHT22;12307;50.828;6.080;2022-08-21T14:09:22;25.20;67.40
24144;DHT22;12307;50.828;6.080;2022-08-21T14:11:51;25.20;67.30
24144;DHT22;12307;50.828;6.080;2022-08-21T14:14:24;25.10;67.30
24144;DHT22;12307;50.828;6.080;2022-08-21T14:16:55;25.20;66.90
24144;DHT22;12307;50.828;6.080;2022-08-21T14:19:23;25.20;67.70
24144;DHT22;12307;50.828;6.080;2022-08-21T14:21:49;25.20;67.60
24144;DHT22;12307;50.828;6.080;2022-08-21T14:24:26;25.20;67.80
24144;DHT22;12307;50.828;6.080;2022-08-21T14:26:54;25.20;67.30
24144;DHT22;12307;50.828;6.080;2022-08-21T14:29:24;25.20;67.10
24144;DHT22;12307;50.828;6.080;2022-08-21T14:31:53;25.20;67.40
24144;DHT22;12307;50.828;6.080;2022-08-21T14:34:19;25.20;67.40
24144;DHT22;12307;50.828;6.080;2022-08-21T14:36:47;25.20;67.10
24144;DHT22;12307;50.828;6.080;2022-08-21T14:39:13;25.20;67.20
24144;DHT22;12307;50.828;6.080;2022-08-21T14:41:39;25.20;67.40
24144;DHT22;12307;50.828;6.080;2022-08-21T14:44:05;25.10;66.90
24144;DHT22;12307;50.828;6.080;2022-08-21T14:46:34;25.10;66.80
24144;DHT22;12307;50.828;6.080;2022-08-21T14:49:00;25.10;67.20
24144;DHT22;12307;50.828;6.080;2022-08-21T14:51:26;25.20;67.00
24144;DHT22;12307;50.828;6.080;2022-08-21T14:53:52;25.10;66.90
24144;DHT22;12307;50.828;6.080;2022-08-21T14:56:18;25.20;67.40
24144;DHT22;12307;50.828;6.080;2022-08-21T14:58:47;25.10;67.60
24144;DHT22;12307;50.828;6.080;2022-08-21T15:01:15;25.20;67.20
24144;DHT22;12307;50.828;6.080;2022-08-21T15:03:42;25.20;66.80
24144;DHT22;12307;50.828;6.080;2022-08-21T15:06:09;25.10;67.20
24144;DHT22;12307;50.828;6.080;2022-08-21T15:08:35;25.10;66.80
24144;DHT22;12307;50.828;6.080;2022-08-21T15:11:01;25.10;67.20
24144;DHT22;12307;50.828;6.080;2022-08-21T15:13:28;25.20;67.10
24144;DHT22;12307;50.828;6.080;2022-08-21T15:15:54;25.10;66.70
24144;DHT22;12307;50.828;6.080;2022-08-21T15:18:24;25.10;67.10
24144;DHT22;12307;50.828;6.080;2022-08-21T15:20:51;25.10;66.60
24144;DHT22;12307;50.828;6.080;2022-08-21T15:23:18;25.10;66.90
24144;DHT22;12307;50.828;6.080;2022-08-21T15:25:45;25.10;67.00
24144;DHT22;12307;50.828;6.080;2022-08-21T15:28:12;25.10;66.60
24144;DHT22;12307;50.828;6.080;2022-08-21T15:30:40;25.10;66.80
24144;DHT22;12307;50.828;6.080;2022-08-21T15:33:06;25.10;66.70
24144;DHT22;12307;50.828;6.080;2022-08-21T15:35:33;25.10;66.90
24144;DHT22;12307;50.828;6.080;2022-08-21T15:38:00;25.10;67.00